Time;durP1;ratioP1;P1;durP2;ratioP2;P2;SDS_P1;SDS_P2;PMS_P1;PMS_P2;Temp;Humidity;BMP_temperature;BMP_pressure;BME280_temperature;BME280_humidity;BME280_pressure;Samples;Min_cycle;Max_cycle;Signal;HPM_P1;HPM_P2
2023/09/08 00:00:32;;;;;;;10.18;9.18;;;;;;;;;;10216452;28;20648;-69
2023/09/08 00:05:29;;;;;;;11.10;9.25;;;;;;;;;;10228418;28;20487;-69
2023/09/08 00:10:25;;;;;;;12.73;9.45;;;;;;;;;;10228173;28;20045;-69
2023/09/08 00:15:21;;;;;;;10.10;9.05;;;;;;;;;;10226590;28;20056;-69
2023/09/08 00:20:18;;;;;;;10.73;9.65;;;;;;;;;;10227335;28;20053;-69
2023/09/08 00:25:14;;;;;;;11.00;9.30;;;;;;;;;;10229918;28;20141;-69
2023/09/08 00:30:11;;;;;;;10.80;8.90;;;;;;;;;;10227944;28;20053;-69
2023/09/08 00:35:08;;;;;;;13.15;9.82;;;;;;;;;;10220973;28;20057;-69
2023/09/08 00:40:04;;;;;;;10.05;9.00;;;;;;;;;;10219200;28;20134;-70
2023/09/08 00:45:01;;;;;;;10.27;9.30;;;;;;;;;;10224616;28;20111;-70
2023/09/08 00:49:58;;;;;;;9.82;8.75;;;;;;;;;;10226954;28;20119;-70
2023/09/08 00:54:54;;;;;;;10.13;9.18;;;;;;;;;;10335438;22;20045;-70
2023/09/08 00:59:50;;;;;;;10.90;8.15;;;;;;;;;;10224178;28;20103;-70
2023/09/08 01:04:46;;;;;;;9.65;8.65;;;;;;;;;;10269646;22;20089;-70
2023/09/08 01:09:44;;;;;;;9.63;8.75;;;;;;;;;;10227656;28;20136;-71
2023/09/08 01:19:52;;;;;;;12.52;9.85;;;;;;;;;;10172085;28;20062;-70
2023/09/08 01:25:06;;;;;;;10.68;9.10;;;;;;;;;;10151508;28;20046;-69
2023/09/08 01:30:04;;;;;;;9.52;8.07;;;;;;;;;;10143523;28;20050;-70
2023/09/08 01:35:00;;;;;;;11.02;9.00;;;;;;;;;;10132618;28;20058;-68
2023/09/08 01:39:57;;;;;;;11.13;9.82;;;;;;;;;;10141746;28;20129;-71
2023/09/08 01:44:53;;;;;;;9.60;8.70;;;;;;;;;;10136507;28;20042;-69
2023/09/08 01:49:49;;;;;;;10.00;8.93;;;;;;;;;;10147718;28;20076;-69
2023/09/08 01:54:46;;;;;;;9.65;8.75;;;;;;;;;;10121796;28;20137;-70
2023/09/08 01:59:42;;;;;;;10.25;9.25;;;;;;;;;;10144796;28;20072;-70
2023/09/08 02:04:38;;;;;;;10.60;9.60;;;;;;;;;;10146328;28;20057;-69
2023/09/08 02:09:36;;;;;;;10.60;9.20;;;;;;;;;;10144142;28;20105;-70
2023/09/08 02:14:32;;;;;;;10.07;9.05;;;;;;;;;;10139689;28;20137;-70
2023/09/08 02:19:28;;;;;;;11.20;9.50;;;;;;;;;;10144048;28;20461;-70
2023/09/08 02:24:25;;;;;;;10.73;9.63;;;;;;;;;;10138887;28;20058;-70
2023/09/08 02:29:22;;;;;;;10.60;9.60;;;;;;;;;;10150078;28;20091;-70
2023/09/08 02:34:18;;;;;;;14.35;9.90;;;;;;;;;;10140875;28;20072;-69
2023/09/08 02:39:15;;;;;;;17.13;9.65;;;;;;;;;;10140257;28;20054;-69
2023/09/08 02:44:12;;;;;;;11.95;10.52;;;;;;;;;;10137436;28;20721;-69
2023/09/08 02:49:09;;;;;;;11.10;10.10;;;;;;;;;;10130732;28;20077;-69
2023/09/08 02:54:05;;;;;;;12.65;10.20;;;;;;;;;;10134007;28;20050;-70
2023/09/08 02:59:01;;;;;;;10.60;9.35;;;;;;;;;;10139064;28;20585;-69
2023/09/08 03:03:58;;;;;;;10.80;9.70;;;;;;;;;;10143182;28;20038;-69
2023/09/08 03:08:54;;;;;;;22.10;15.95;;;;;;;;;;10140690;28;20138;-69
2023/09/08 03:13:51;;;;;;;12.23;10.63;;;;;;;;;;10135307;28;20053;-69
2023/09/08 03:18:47;;;;;;;11.57;10.48;;;;;;;;;;10137571;28;20117;-69
2023/09/08 03:23:44;;;;;;;13.07;11.05;;;;;;;;;;10219636;22;20448;-69
2023/09/08 03:28:41;;;;;;;13.25;11.02;;;;;;;;;;10263827;28;20469;-69
2023/09/08 03:33:38;;;;;;;11.82;10.73;;;;;;;;;;10249141;28;20038;-69
2023/09/08 03:38:36;;;;;;;11.93;10.80;;;;;;;;;;10271925;28;20052;-69
2023/09/08 03:43:33;;;;;;;11.20;10.10;;;;;;;;;;10266753;28;20092;-69
2023/09/08 03:48:30;;;;;;;17.20;11.68;;;;;;;;;;10271444;28;20040;-69
2023/09/08 03:53:26;;;;;;;12.63;11.30;;;;;;;;;;10254421;28;20121;-69
2023/09/08 03:58:23;;;;;;;11.93;10.70;;;;;;;;;;10265881;28;20053;-69
2023/09/08 04:03:19;;;;;;;12.98;10.88;;;;;;;;;;10262245;28;20049;-70
2023/09/08 04:08:15;;;;;;;12.93;11.63;;;;;;;;;;10267531;28;20056;-69
2023/09/08 04:13:12;;;;;;;12.75;11.45;;;;;;;;;;10267426;28;20068;-70
2023/09/08 04:18:08;;;;;;;13.18;11.85;;;;;;;;;;10257418;28;20060;-70
2023/09/08 04:23:05;;;;;;;12.98;11.60;;;;;;;;;;10262613;28;20509;-68
2023/09/08 04:28:02;;;;;;;13.45;12.15;;;;;;;;;;10257735;28;20851;-68
2023/09/08 04:32:58;;;;;;;14.00;11.25;;;;;;;;;;10258724;28;20049;-68
2023/09/08 04:37:55;;;;;;;15.15;13.73;;;;;;;;;;10267384;28;20049;-71
2023/09/08 04:42:51;;;;;;;13.30;12.05;;;;;;;;;;10266334;28;20690;-72
2023/09/08 04:47:47;;;;;;;14.20;12.57;;;;;;;;;;10243128;28;20089;-71
2023/09/08 04:52:44;;;;;;;15.55;13.02;;;;;;;;;;10254322;28;20091;-72
2023/09/08 04:57:40;;;;;;;18.85;13.85;;;;;;;;;;10254458;28;20052;-72
2023/09/08 05:02:36;;;;;;;15.70;12.00;;;;;;;;;;10254301;28;20064;-72
2023/09/08 05:07:33;;;;;;;13.85;12.40;;;;;;;;;;10259284;28;20049;-73
2023/09/08 05:12:29;;;;;;;13.98;12.63;;;;;;;;;;10272392;22;20123;-72
2023/09/08 05:17:26;;;;;;;14.23;12.35;;;;;;;;;;10249482;28;20506;-72
2023/09/08 05:22:22;;;;;;;14.68;13.32;;;;;;;;;;10245894;28;20080;-72
2023/09/08 05:27:20;;;;;;;19.10;12.65;;;;;;;;;;10249565;28;20084;-72
2023/09/08 05:32:17;;;;;;;13.85;12.45;;;;;;;;;;10246595;28;20057;-71
2023/09/08 05:37:13;;;;;;;15.32;13.75;;;;;;;;;;10248650;28;20081;-70
2023/09/08 05:42:10;;;;;;;14.23;12.82;;;;;;;;;;10256538;28;20083;-70
2023/09/08 05:47:08;;;;;;;14.40;13.00;;;;;;;;;;10246292;28;20061;-71
2023/09/08 05:52:04;;;;;;;14.38;12.98;;;;;;;;;;10233420;28;20056;-71
2023/09/08 05:57:01;;;;;;;16.85;13.18;;;;;;;;;;10230232;28;20060;-71
2023/09/08 06:01:57;;;;;;;15.10;13.63;;;;;;;;;;10257019;28;20115;-70
2023/09/08 06:06:53;;;;;;;14.77;12.65;;;;;;;;;;10237351;28;20046;-70
2023/09/08 06:11:50;;;;;;;15.85;12.73;;;;;;;;;;10245541;28;20051;-71
2023/09/08 06:16:46;;;;;;;15.60;12.55;;;;;;;;;;10242283;28;20662;-71
2023/09/08 06:21:43;;;;;;;15.23;12.98;;;;;;;;;;10248941;28;20272;-71
2023/09/08 06:26:39;;;;;;;14.50;12.55;;;;;;;;;;10240070;28;20053;-71
2023/09/08 06:31:35;;;;;;;54.33;16.85;;;;;;;;;;10251109;28;20048;-71
2023/09/08 06:36:32;;;;;;;13.05;11.82;;;;;;;;;;10242967;28;20577;-71
2023/09/08 06:41:28;;;;;;;13.98;12.50;;;;;;;;;;10229031;28;20536;-72
2023/09/08 06:46:25;;;;;;;13.80;12.40;;;;;;;;;;10248645;28;20052;-71
2023/09/08 06:51:21;;;;;;;12.80;11.60;;;;;;;;;;10262302;28;20076;-71
2023/09/08 06:56:17;;;;;;;14.55;12.20;;;;;;;;;;10253860;28;20688;-71
2023/09/08 07:01:14;;;;;;;14.48;12.52;;;;;;;;;;10251316;28;20578;-71
2023/09/08 07:06:11;;;;;;;14.93;13.43;;;;;;;;;;10253610;28;20064;-71
2023/09/08 07:11:07;;;;;;;15.50;13.23;;;;;;;;;;10237198;28;20053;-71
2023/09/08 07:16:04;;;;;;;13.65;12.25;;;;;;;;;;10240234;28;20041;-71
2023/09/08 07:21:04;;;;;;;13.80;12.27;;;;;;;;;;10255449;28;20084;-71
2023/09/08 07:26:00;;;;;;;14.90;11.32;;;;;;;;;;10257239;28;20048;-70
2023/09/08 07:31:03;;;;;;;13.70;12.27;;;;;;;;;;10222748;28;20077;-70
2023/09/08 07:36:04;;;;;;;14.27;12.25;;;;;;;;;;10222018;28;20132;-71
2023/09/08 07:41:03;;;;;;;13.85;12.48;;;;;;;;;;10252287;28;20056;-72
2023/09/08 07:45:59;;;;;;;14.23;11.70;;;;;;;;;;10252167;28;20045;-70
2023/09/08 07:50:58;;;;;;;14.25;12.82;;;;;;;;;;10241759;28;20118;-71
2023/09/08 07:55:54;;;;;;;14.95;12.35;;;;;;;;;;10255010;28;20049;-70
2023/09/08 08:00:51;;;;;;;13.57;12.27;;;;;;;;;;10239315;28;20068;-71
2023/09/08 08:05:47;;;;;;;13.90;12.68;;;;;;;;;;10244149;28;20638;-70
2023/09/08 08:10:43;;;;;;;13.52;11.93;;;;;;;;;;10252463;28;20398;-71
2023/09/08 08:15:42;;;;;;;13.80;12.50;;;;;;;;;;10248856;28;20487;-72
2023/09/08 08:20:38;;;;;;;13.02;11.82;;;;;;;;;;10252468;28;20062;-71
2023/09/08 08:25:35;;;;;;;15.02;11.77;;;;;;;;;;10254285;28;20697;-71
2023/09/08 08:30:32;;;;;;;14.23;12.43;;;;;;;;;;10252718;28;20059;-71
2023/09/08 08:35:28;;;;;;;13.15;11.85;;;;;;;;;;10254116;28;20132;-71
2023/09/08 08:40:26;;;;;;;15.38;12.02;;;;;;;;;;10255060;28;20045;-71
2023/09/08 08:45:24;;;;;;;15.57;13.02;;;;;;;;;;10257755;28;20051;-71
2023/09/08 08:50:21;;;;;;;12.88;11.52;;;;;;;;;;10259580;28;20073;-72
2023/09/08 08:55:17;;;;;;;17.23;11.10;;;;;;;;;;10255909;28;20106;-71
2023/09/08 09:00:18;;;;;;;14.15;12.50;;;;;;;;;;10252186;28;20144;-71
2023/09/08 09:05:14;;;;;;;13.60;12.43;;;;;;;;;;10253761;28;20057;-71
2023/09/08 09:10:11;;;;;;;12.85;11.75;;;;;;;;;;10244092;28;20080;-72
2023/09/08 09:15:11;;;;;;;15.07;11.05;;;;;;;;;;10233759;28;20080;-71
2023/09/08 09:20:20;;;;;;;13.55;12.23;;;;;;;;;;10261372;28;20061;-71
2023/09/08 09:25:24;;;;;;;13.20;11.93;;;;;;;;;;10243658;28;20592;-71
2023/09/08 09:30:22;;;;;;;12.85;10.95;;;;;;;;;;10261937;28;20068;-71
2023/09/08 09:35:18;;;;;;;13.15;11.80;;;;;;;;;;10246467;28;20056;-72
2023/09/08 09:40:15;;;;;;;13.35;11.93;;;;;;;;;;10252685;28;20103;-71
2023/09/08 09:45:11;;;;;;;12.77;11.57;;;;;;;;;;10249304;28;20116;-70
2023/09/08 09:50:08;;;;;;;14.00;12.38;;;;;;;;;;10252280;28;20053;-72
2023/09/08 09:55:05;;;;;;;12.93;11.73;;;;;;;;;;10247980;28;20080;-71
2023/09/08 10:00:05;;;;;;;13.05;11.10;;;;;;;;;;10258999;28;20080;-72
2023/09/08 10:05:10;;;;;;;12.63;11.48;;;;;;;;;;10260564;28;20052;-72
2023/09/08 10:10:06;;;;;;;12.40;11.20;;;;;;;;;;10259506;28;20203;-71
2023/09/08 10:15:05;;;;;;;16.85;11.38;;;;;;;;;;10247459;28;20052;-71
2023/09/08 10:20:11;;;;;;;11.05;10.10;;;;;;;;;;10231871;28;20519;-72
2023/09/08 10:25:08;;;;;;;11.57;10.48;;;;;;;;;;10235961;28;20106;-74
2023/09/08 10:30:06;;;;;;;12.30;10.00;;;;;;;;;;10257174;28;20497;-73
2023/09/08 10:35:03;;;;;;;11.20;10.00;;;;;;;;;;10248997;28;20045;-73
2023/09/08 10:40:18;;;;;;;15.13;11.70;;;;;;;;;;10252175;28;20048;-73
2023/09/08 10:45:18;;;;;;;11.75;10.60;;;;;;;;;;10235150;28;20057;-74
2023/09/08 10:50:18;;;;;;;11.38;10.38;;;;;;;;;;10247399;28;20053;-74
2023/09/08 10:55:15;;;;;;;12.77;10.23;;;;;;;;;;10244640;28;20086;-74
2023/09/08 11:00:17;;;;;;;11.48;10.38;;;;;;;;;;10252412;28;20413;-74
2023/09/08 11:05:14;;;;;;;10.80;9.68;;;;;;;;;;10253342;28;20524;-74
2023/09/08 11:10:12;;;;;;;10.85;9.75;;;;;;;;;;10238930;28;20433;-74
2023/09/08 11:15:08;;;;;;;11.20;10.00;;;;;;;;;;10244577;28;20493;-74
2023/09/08 11:20:08;;;;;;;11.25;9.98;;;;;;;;;;10248956;28;20107;-73
2023/09/08 11:25:10;;;;;;;11.05;9.90;;;;;;;;;;10254932;28;20416;-73
2023/09/08 11:30:08;;;;;;;11.82;10.15;;;;;;;;;;10252418;28;20072;-73
2023/09/08 11:35:09;;;;;;;9.55;8.73;;;;;;;;;;10246736;28;20069;-73
2023/09/08 11:40:09;;;;;;;10.35;9.38;;;;;;;;;;10246006;28;20111;-73
2023/09/08 11:45:07;;;;;;;9.80;8.90;;;;;;;;;;10247959;28;20064;-75
2023/09/08 11:50:07;;;;;;;12.20;9.10;;;;;;;;;;10245071;28;20045;-74
2023/09/08 11:55:04;;;;;;;11.02;9.57;;;;;;;;;;10239745;28;20050;-74
2023/09/08 12:00:05;;;;;;;10.13;9.13;;;;;;;;;;10250610;28;20052;-74
2023/09/08 12:05:05;;;;;;;10.63;9.60;;;;;;;;;;10255994;28;20662;-74
2023/09/08 12:10:06;;;;;;;13.30;9.77;;;;;;;;;;10249545;28;21297;-73
2023/09/08 12:15:02;;;;;;;10.30;9.30;;;;;;;;;;10245739;28;20334;-73
2023/09/08 12:19:59;;;;;;;11.13;9.68;;;;;;;;;;10232211;28;20061;-74
2023/09/08 12:24:56;;;;;;;10.52;9.35;;;;;;;;;;10259626;28;20060;-74
2023/09/08 12:29:52;;;;;;;10.25;9.35;;;;;;;;;;10256494;28;20100;-74
2023/09/08 12:34:49;;;;;;;11.98;9.38;;;;;;;;;;10242197;28;20092;-74
2023/09/08 12:39:45;;;;;;;10.60;9.60;;;;;;;;;;10253049;28;20118;-74
2023/09/08 12:44:42;;;;;;;11.38;9.82;;;;;;;;;;10254972;28;20076;-74
2023/09/08 12:49:38;;;;;;;10.32;9.32;;;;;;;;;;10251808;28;20055;-74
2023/09/08 12:54:35;;;;;;;9.45;8.55;;;;;;;;;;10246152;28;20067;-74
2023/09/08 12:59:31;;;;;;;10.30;9.18;;;;;;;;;;10257691;28;20535;-74
2023/09/08 13:04:28;;;;;;;9.60;8.38;;;;;;;;;;10253154;28;20053;-74
2023/09/08 13:09:24;;;;;;;9.75;8.77;;;;;;;;;;10255879;28;20044;-75
2023/09/08 13:14:20;;;;;;;8.77;7.97;;;;;;;;;;10238885;28;20064;-74
2023/09/08 13:19:17;;;;;;;8.85;8.05;;;;;;;;;;10247831;28;20408;-74
2023/09/08 13:24:13;;;;;;;9.18;8.05;;;;;;;;;;10244416;28;20056;-74
2023/09/08 13:29:10;;;;;;;9.73;8.55;;;;;;;;;;10252461;28;20061;-74
2023/09/08 13:34:06;;;;;;;9.70;8.82;;;;;;;;;;10248007;28;20053;-74
2023/09/08 13:39:02;;;;;;;9.45;8.65;;;;;;;;;;10246333;28;21056;-73
2023/09/08 13:44:00;;;;;;;10.93;9.38;;;;;;;;;;10251652;28;20294;-72
2023/09/08 13:48:56;;;;;;;10.00;9.02;;;;;;;;;;10260919;28;20053;-72
2023/09/08 13:53:55;;;;;;;10.15;9.20;;;;;;;;;;10259444;28;20045;-73
2023/09/08 13:58:53;;;;;;;11.93;9.90;;;;;;;;;;10245092;28;20408;-73
2023/09/08 14:03:52;;;;;;;10.68;9.70;;;;;;;;;;10253341;28;20049;-72
2023/09/08 14:08:52;;;;;;;10.15;9.15;;;;;;;;;;10257215;28;20482;-72
2023/09/08 14:13:51;;;;;;;10.52;9.27;;;;;;;;;;10245467;28;20060;-72
2023/09/08 14:18:47;;;;;;;9.90;8.93;;;;;;;;;;10250427;28;20057;-72
2023/09/08 14:23:44;;;;;;;10.00;9.02;;;;;;;;;;10240831;22;20053;-72
2023/09/08 14:28:40;;;;;;;9.88;8.98;;;;;;;;;;10224257;28;20077;-75
2023/09/08 14:33:36;;;;;;;10.55;8.77;;;;;;;;;;10223747;28;20445;-72
2023/09/08 14:38:33;;;;;;;9.82;8.95;;;;;;;;;;10216509;28;20061;-72
2023/09/08 14:43:30;;;;;;;10.02;9.13;;;;;;;;;;10221277;28;20062;-73
2023/09/08 14:48:26;;;;;;;9.30;8.40;;;;;;;;;;10228014;28;20053;-73
2023/09/08 14:53:23;;;;;;;9.85;9.05;;;;;;;;;;10224945;28;20053;-74
2023/09/08 14:58:19;;;;;;;9.18;8.38;;;;;;;;;;10225494;28;20531;-74
2023/09/08 15:03:15;;;;;;;9.85;9.05;;;;;;;;;;10221954;28;20054;-73
2023/09/08 15:08:12;;;;;;;9.82;9.02;;;;;;;;;;10202396;28;20095;-73
2023/09/08 15:13:09;;;;;;;10.90;9.60;;;;;;;;;;10220895;28;20053;-73
2023/09/08 15:18:05;;;;;;;10.40;9.45;;;;;;;;;;10220798;28;20073;-74
2023/09/08 15:23:02;;;;;;;10.45;9.20;;;;;;;;;;10211410;28;20700;-75
2023/09/08 15:28:03;;;;;;;9.88;9.05;;;;;;;;;;10217703;28;20049;-75
2023/09/08 15:33:04;;;;;;;9.55;8.75;;;;;;;;;;10221587;28;20103;-75
2023/09/08 15:38:00;;;;;;;9.65;8.82;;;;;;;;;;10229962;28;20119;-75
2023/09/08 15:42:57;;;;;;;10.32;9.02;;;;;;;;;;10227569;28;20045;-75
2023/09/08 15:47:54;;;;;;;10.10;9.18;;;;;;;;;;10212320;28;20050;-75
2023/09/08 15:52:50;;;;;;;12.90;8.88;;;;;;;;;;10212035;28;20053;-74
2023/09/08 15:57:46;;;;;;;9.82;9.02;;;;;;;;;;10225102;28;20077;-74
2023/09/08 16:02:43;;;;;;;11.93;8.95;;;;;;;;;;10229908;28;20060;-74
2023/09/08 16:07:41;;;;;;;9.48;8.65;;;;;;;;;;10224952;28;20081;-74
2023/09/08 16:12:37;;;;;;;11.73;9.05;;;;;;;;;;10210335;28;20049;-75
2023/09/08 16:17:34;;;;;;;9.50;8.60;;;;;;;;;;10224965;28;20563;-75
2023/09/08 16:22:30;;;;;;;9.63;8.70;;;;;;;;;;10221864;28;20142;-74
2023/09/08 16:27:28;;;;;;;9.05;8.23;;;;;;;;;;10218466;28;20138;-74
2023/09/08 16:32:24;;;;;;;9.10;8.07;;;;;;;;;;10223650;28;20049;-75
2023/09/08 16:37:21;;;;;;;9.43;8.63;;;;;;;;;;10221016;28;20054;-75
2023/09/08 16:42:17;;;;;;;9.18;8.27;;;;;;;;;;10219499;28;20546;-75
2023/09/08 16:47:14;;;;;;;8.38;7.63;;;;;;;;;;10210406;28;20062;-75
2023/09/08 16:52:10;;;;;;;9.43;8.52;;;;;;;;;;10216901;28;20464;-75
2023/09/08 16:57:06;;;;;;;9.50;8.63;;;;;;;;;;10193487;28;20890;-74
2023/09/08 17:02:03;;;;;;;9.13;8.25;;;;;;;;;;10198577;28;20251;-75
2023/09/08 17:06:59;;;;;;;9.52;8.05;;;;;;;;;;10203286;28;20119;-75
2023/09/08 17:11:56;;;;;;;9.77;8.77;;;;;;;;;;10206758;28;20104;-72
2023/09/08 17:16:52;;;;;;;9.48;8.55;;;;;;;;;;10218818;28;20429;-73
2023/09/08 17:21:50;;;;;;;8.90;8.00;;;;;;;;;;10213644;28;20049;-73
2023/09/08 17:26:46;;;;;;;9.20;8.40;;;;;;;;;;10228118;28;20058;-75
2023/09/08 17:31:43;;;;;;;9.57;8.63;;;;;;;;;;10217837;28;20157;-75
2023/09/08 17:36:39;;;;;;;9.63;8.73;;;;;;;;;;10224675;28;20081;-75
2023/09/08 17:41:35;;;;;;;12.02;9.30;;;;;;;;;;10221751;28;20050;-72
2023/09/08 17:46:33;;;;;;;9.45;8.45;;;;;;;;;;10214941;28;20053;-75
2023/09/08 17:51:30;;;;;;;11.85;9.25;;;;;;;;;;10215630;28;20045;-75
2023/09/08 17:56:27;;;;;;;9.48;8.48;;;;;;;;;;10213309;28;20277;-75
2023/09/08 18:01:23;;;;;;;13.20;9.75;;;;;;;;;;10212203;28;20144;-75
2023/09/08 18:06:20;;;;;;;15.13;9.88;;;;;;;;;;10197486;28;20054;-75
2023/09/08 18:11:19;;;;;;;11.15;9.65;;;;;;;;;;10221700;28;20052;-74
2023/09/08 18:16:15;;;;;;;11.43;9.95;;;;;;;;;;10221932;28;20053;-74
2023/09/08 18:21:12;;;;;;;11.73;9.80;;;;;;;;;;10222782;28;20057;-75
2023/09/08 18:26:09;;;;;;;13.82;10.35;;;;;;;;;;10218813;28;20056;-75
2023/09/08 18:31:06;;;;;;;14.55;10.90;;;;;;;;;;10214120;28;20148;-75
2023/09/08 18:36:02;;;;;;;12.85;10.13;;;;;;;;;;10218167;28;20731;-75
2023/09/08 18:40:59;;;;;;;11.57;9.93;;;;;;;;;;10203405;28;20609;-75
2023/09/08 18:45:55;;;;;;;14.25;9.73;;;;;;;;;;10214067;28;20123;-75
2023/09/08 18:50:52;;;;;;;12.25;10.05;;;;;;;;;;10216623;28;20699;-75
2023/09/08 18:55:48;;;;;;;11.43;10.25;;;;;;;;;;10202658;28;20057;-74
2023/09/08 19:00:45;;;;;;;10.95;9.32;;;;;;;;;;10193534;28;20576;-73
2023/09/08 19:05:42;;;;;;;10.98;9.73;;;;;;;;;;10208168;28;20049;-74
2023/09/08 19:10:38;;;;;;;13.13;10.20;;;;;;;;;;10212056;28;20041;-73
2023/09/08 19:15:35;;;;;;;13.55;10.32;;;;;;;;;;10210537;28;20548;-73
2023/09/08 19:20:32;;;;;;;11.43;10.07;;;;;;;;;;10220440;28;20176;-74
2023/09/08 19:25:28;;;;;;;10.30;9.00;;;;;;;;;;10213413;28;20069;-74
2023/09/08 19:30:24;;;;;;;12.43;9.55;;;;;;;;;;10204412;28;20046;-74
2023/09/08 19:35:21;;;;;;;11.25;10.05;;;;;;;;;;10186262;28;20205;-74
2023/09/08 19:40:17;;;;;;;11.73;10.48;;;;;;;;;;10212993;28;20047;-74
2023/09/08 19:45:14;;;;;;;13.88;10.18;;;;;;;;;;10220816;28;20200;-74
2023/09/08 19:50:10;;;;;;;15.10;10.77;;;;;;;;;;10210453;28;20116;-73
2023/09/08 19:55:07;;;;;;;13.13;10.57;;;;;;;;;;10216033;28;20501;-73
2023/09/08 20:00:04;;;;;;;14.23;10.70;;;;;;;;;;10191246;28;20436;-70
2023/09/08 20:05:01;;;;;;;13.32;10.40;;;;;;;;;;10215060;28;20077;-71
2023/09/08 20:09:58;;;;;;;12.15;10.80;;;;;;;;;;10214585;28;20642;-70
2023/09/08 20:14:54;;;;;;;12.45;9.77;;;;;;;;;;10196624;28;20049;-72
2023/09/08 20:19:51;;;;;;;11.02;9.98;;;;;;;;;;10211517;28;20135;-70
2023/09/08 20:24:50;;;;;;;14.73;10.27;;;;;;;;;;10217229;28;20072;-69
2023/09/08 20:29:48;;;;;;;10.98;9.88;;;;;;;;;;10218271;28;20053;-70
2023/09/08 20:34:46;;;;;;;11.63;10.43;;;;;;;;;;10212667;28;20108;-70
2023/09/08 20:39:42;;;;;;;11.25;9.55;;;;;;;;;;10218018;28;20508;-70
2023/09/08 20:44:44;;;;;;;11.40;9.88;;;;;;;;;;10261677;23;20145;-73
2023/09/08 20:50:42;;;;;;;11.80;10.57;;;;;;;;;;10130627;28;20076;-74
2023/09/08 20:55:39;;;;;;;12.80;10.18;;;;;;;;;;10155492;28;20370;-69
2023/09/08 21:00:35;;;;;;;14.38;10.25;;;;;;;;;;10177599;28;20050;-71
2023/09/08 21:05:32;;;;;;;13.45;9.63;;;;;;;;;;10158493;28;20568;-71
2023/09/08 21:10:28;;;;;;;13.13;9.80;;;;;;;;;;10172065;28;20122;-71
2023/09/08 21:15:25;;;;;;;15.15;9.80;;;;;;;;;;10179920;28;20053;-71
2023/09/08 21:20:21;;;;;;;14.25;9.85;;;;;;;;;;10226533;28;20092;-71
2023/09/08 21:25:18;;;;;;;15.43;11.13;;;;;;;;;;10264502;28;20152;-71
2023/09/08 21:30:14;;;;;;;11.43;10.32;;;;;;;;;;10261357;28;20049;-71
2023/09/08 21:35:11;;;;;;;13.85;10.48;;;;;;;;;;10267841;28;20049;-72
2023/09/08 21:40:07;;;;;;;12.50;10.05;;;;;;;;;;10250507;28;20574;-71
2023/09/08 21:45:04;;;;;;;15.75;10.57;;;;;;;;;;10259987;28;20049;-72
2023/09/08 21:50:00;;;;;;;12.18;10.88;;;;;;;;;;10255654;28;20119;-72
2023/09/08 21:54:57;;;;;;;13.60;10.85;;;;;;;;;;10265572;28;20103;-70
2023/09/08 21:59:53;;;;;;;12.13;10.35;;;;;;;;;;10264253;28;20052;-71
2023/09/08 22:04:49;;;;;;;11.63;10.43;;;;;;;;;;10265628;28;20513;-72
2023/09/08 22:09:46;;;;;;;14.23;10.15;;;;;;;;;;10263194;28;20551;-71
2023/09/08 22:14:42;;;;;;;11.88;10.55;;;;;;;;;;10263324;28;20129;-71
2023/09/08 22:24:50;;;;;;;12.82;11.50;;;;;;;;;;10246938;22;20053;-68
2023/09/08 22:29:46;;;;;;;12.10;10.80;;;;;;;;;;10217151;28;20046;-70
2023/09/08 22:34:42;;;;;;;12.43;10.85;;;;;;;;;;10220973;28;20099;-69
2023/09/08 22:39:38;;;;;;;13.88;10.98;;;;;;;;;;10220037;28;20041;-69
2023/09/08 22:44:35;;;;;;;14.23;11.23;;;;;;;;;;10213305;28;20049;-69
2023/09/08 22:49:33;;;;;;;11.77;10.63;;;;;;;;;;10220828;28;20928;-70
2023/09/08 22:54:29;;;;;;;12.57;11.27;;;;;;;;;;10223702;28;20584;-70
2023/09/08 22:59:25;;;;;;;14.20;11.50;;;;;;;;;;10221292;28;20080;-70
2023/09/08 23:04:22;;;;;;;12.68;10.70;;;;;;;;;;10196568;28;20064;-70
2023/09/08 23:09:18;;;;;;;13.88;10.80;;;;;;;;;;10213252;28;20061;-70
2023/09/08 23:14:15;;;;;;;13.80;11.27;;;;;;;;;;10216866;28;20103;-70
2023/09/08 23:19:11;;;;;;;12.52;11.32;;;;;;;;;;10224426;28;20512;-69
2023/09/08 23:24:07;;;;;;;14.27;11.13;;;;;;;;;;10208814;28;20582;-70
2023/09/08 23:29:04;;;;;;;13.45;11.85;;;;;;;;;;10209190;28;20046;-69
2023/09/08 23:34:00;;;;;;;11.70;10.55;;;;;;;;;;10218584;28;20055;-70
2023/09/08 23:38:56;;;;;;;12.63;11.30;;;;;;;;;;10210512;28;20607;-70
2023/09/08 23:43:53;;;;;;;12.15;10.95;;;;;;;;;;10214377;28;20579;-71
2023/09/08 23:48:49;;;;;;;12.82;11.32;;;;;;;;;;10210440;28;20209;-71
2023/09/08 23:53:45;;;;;;;13.52;11.68;;;;;;;;;;10221364;28;20412;-71
2023/09/08 23:58:42;;;;;;;12.65;11.40;;;;;;;;;;10231945;28;20073;-71
